Latest Weather Observations for Mandurah

IDW60801

Issued at 9:05 pm WST Sunday 23 November 2014 (issued every 30 minutes, with the page automatically refreshed every 10 minutes)

About weather observations | Map of weather stations | Latest weather observations for WA | Other Formats
Station Details ID: 009977 Name: MANDURAH Lat: -32.52 Lon: 115.71 Height: 3.0 m
Data from the previous 72 hours. | See also: Recent months at Mandurah
Date/Time
WST
Temp
°C
App
Temp
°C
Dew
Point
Rel
Hum
%
Delta-T
°C
Wind Press
QNH
hPa
Press
MSL
hPa
Rain
since 9 am
mm
Dir
 
Spd
km/h
Gust
km/h
Spd
kts
Gust
kts
23/09:00pm 17.0 11.4 7.1 52 4.9 S 26 43 14 23 1020.2 1020.2 0.0
23/08:30pm 17.8 13.2 8.1 53 4.9 S 22 35 12 19 1019.7 1019.7 0.0
23/08:00pm 18.0 13.5 8.6 54 4.8 S 22 35 12 19 1019.2 1019.2 0.0
23/07:30pm 18.2 14.4 9.0 55 4.8 S 19 30 10 16 1018.9 1018.9 0.0
23/07:00pm 18.3 14.2 10.2 59 4.3 SSW 22 33 12 18 1018.7 1018.7 0.0
23/06:30pm 18.5 14.4 10.1 58 4.5 SSW 22 32 12 17 1018.5 1018.5 0.0
23/06:00pm 18.8 14.9 9.3 54 5.0 SSW 20 33 11 18 1018.1 1018.1 0.0
23/05:30pm 19.5 15.3 8.2 48 5.8 SSW 20 33 11 18 1017.6 1017.6 0.0
23/05:00pm 19.8 16.2 8.5 48 5.9 SSW 17 26 9 14 1017.5 1017.5 0.0
23/04:30pm 19.8 15.7 8.8 49 5.8 S 20 33 11 18 1017.4 1017.4 0.0
23/04:00pm 20.1 15.5 8.1 46 6.2 SSW 22 30 12 16 1017.4 1017.4 0.0
23/03:30pm 20.4 15.9 8.4 46 6.3 SW 22 33 12 18 1017.3 1017.3 0.0
23/03:00pm 21.4 17.5 8.7 44 6.7 SW 19 28 10 15 1017.4 1017.4 0.0
23/02:30pm 21.4 16.6 8.7 44 6.7 WSW 24 35 13 19 1017.4 1017.4 0.0
23/02:00pm 20.8 15.5 8.4 45 6.5 WSW 26 35 14 19 1017.4 1017.4 0.0
23/01:30pm 19.8 15.1 9.1 50 5.6 SW 24 35 13 19 1017.5 1017.5 0.0
23/01:00pm 20.7 16.2 9.9 50 5.8 SW 24 41 13 22 1017.6 1017.6 0.0
23/12:30pm 20.8 18.1 10.3 51 5.7 S 15 22 8 12 1017.6 1017.6 0.0
23/12:00pm 19.5 15.8 10.0 54 5.1 WSW 20 32 11 17 1017.7 1017.7 0.0
23/11:30am 19.8 15.8 10.5 55 5.0 WSW 22 32 12 17 1017.6 1017.6 0.0
23/11:00am 20.5 16.8 10.0 51 5.6 SW 20 26 11 14 1017.8 1017.8 0.0
23/10:30am 20.4 17.0 9.3 49 5.9 S 17 26 9 14 1017.6 1017.6 0.0
23/10:00am 19.5 15.9 9.7 53 5.2 S 19 32 10 17 1017.6 1017.6 0.0
23/09:30am 19.6 16.6 10.6 56 4.9 SSW 17 26 9 14 1017.6 1017.6 0.0
23/09:00am 17.5 16.7 12.8 74 2.6 SW 9 19 5 10 1017.7 1017.7 0.0
23/08:30am 18.6 15.4 11.9 65 3.7 SSW 20 33 11 18 1017.6 1017.6 0.0
23/08:00am 18.4 14.3 11.5 64 3.8 SSW 24 39 13 21 1017.1 1017.1 0.0
23/07:30am 18.3 14.9 10.4 60 4.2 SW 19 28 10 15 1016.8 1016.8 0.0
23/07:00am 17.5 16.9 11.8 69 3.1 S 6 9 3 5 1016.5 1016.5 0.0
23/06:30am 17.3 16.6 13.2 77 2.3 WSW 9 15 5 8 1016.3 1016.3 0.0
23/06:00am 16.9 14.2 11.6 71 2.9 SSW 17 26 9 14 1016.1 1016.1 0.0
23/05:30am 17.4 14.6 11.4 68 3.3 SSW 17 30 9 16 1015.6 1015.6 0.0
23/05:00am 17.6 15.1 10.9 65 3.6 SW 15 24 8 13 1015.0 1015.0 0.0
23/04:30am 17.4 13.9 10.3 63 3.8 SW 19 30 10 16 1014.8 1014.8 0.0
23/04:00am 17.7 14.2 10.1 61 4.0 SW 19 32 10 17 1014.6 1014.6 0.0
23/03:30am 17.5 15.4 9.9 61 4.0 SW 11 19 6 10 1014.5 1014.5 0.0
23/03:00am 17.4 15.4 10.1 62 3.9 SSW 11 19 6 10 1014.5 1014.5 0.0
23/02:30am 17.6 14.1 8.7 56 4.6 SW 17 24 9 13 1014.5 1014.5 0.0
23/02:00am 17.6 14.7 8.2 54 4.8 SW 13 20 7 11 1014.5 1014.5 0.0
23/01:30am 17.7 13.8 8.8 56 4.6 SW 19 28 10 15 1014.6 1014.6 0.0
23/01:00am 17.7 14.8 9.8 60 4.2 SW 15 24 8 13 1014.7 1014.7 0.0
23/12:30am 17.9 14.7 8.5 54 4.8 SW 15 22 8 12 1014.8 1014.8 0.0
23/12:00am 17.9 14.1 7.6 51 5.2 SW 17 26 9 14 1015.1 1015.1 0.0
 
Date/Time
WST
Temp
°C
App
Temp
°C
Dew
Point
Rel
Hum
%
Delta-T
°C
Wind Press
QNH
hPa
Press
MSL
hPa
Rain
since 9 am
mm
Dir
 
Spd
km/h
Gust
km/h
Spd
kts
Gust
kts
22/11:30pm 17.9 14.5 7.6 51 5.2 SW 15 22 8 12 1015.2 1015.2 0.0
22/11:00pm 17.9 14.2 9.3 57 4.5 SW 19 26 10 14 1015.3 1015.3 0.0
22/10:30pm 18.0 14.7 9.4 57 4.5 SW 17 30 9 16 1015.3 1015.3 0.0
22/10:00pm 18.2 15.0 10.1 59 4.3 SW 17 24 9 13 1015.5 1015.5 0.0
22/09:30pm 18.3 16.1 10.9 62 4.0 SSW 13 19 7 10 1015.5 1015.5 0.0
22/09:00pm 18.3 15.1 11.4 64 3.8 SW 19 28 10 15 1015.4 1015.4 0.0
22/08:30pm 18.3 15.9 11.4 64 3.8 SW 15 24 8 13 1015.4 1015.4 0.0
22/08:00pm 18.3 17.0 11.4 64 3.8 SW 9 15 5 8 1015.0 1015.0 0.0
22/07:30pm 18.3 16.8 11.8 66 3.6 SSW 11 15 6 8 1015.1 1015.1 0.0
22/07:00pm 18.2 16.6 11.5 65 3.7 SW 11 20 6 11 1015.0 1015.0 0.0
22/06:30pm 18.1 16.7 12.1 68 3.3 SW 11 19 6 10 1014.8 1014.8 0.0
22/06:00pm 18.5 15.9 12.0 66 3.6 SW 17 26 9 14 1014.5 1014.5 0.0
22/05:30pm 19.1 16.6 12.4 65 3.7 SW 17 24 9 13 1014.4 1014.4 0.0
22/05:00pm 19.8 16.6 11.3 58 4.7 WSW 19 26 10 14 1014.3 1014.3 0.0
22/04:30pm 19.4 15.8 11.7 61 4.2 SW 22 32 12 17 1014.3 1014.3 0.0
22/04:00pm 19.4 16.2 13.1 67 3.6 SW 22 32 12 17 1014.4 1014.4 0.0
22/03:30pm 20.7 17.4 12.7 60 4.5 SW 22 32 12 17 1014.2 1014.2 0.0
22/03:00pm 20.9 17.2 11.5 55 5.2 WSW 22 32 12 17 1014.3 1014.3 0.0
22/02:30pm 21.2 17.8 12.6 58 4.9 WSW 22 30 12 16 1014.3 1014.3 0.0
22/02:00pm 21.1 17.5 13.0 60 4.6 WSW 24 37 13 20 1014.3 1014.3 0.0
22/01:30pm 21.2 17.7 11.0 52 5.6 WSW 20 30 11 16 1014.4 1014.4 0.0
22/01:00pm 22.9 19.2 10.3 45 6.9 WSW 20 32 11 17 1014.3 1014.3 0.0
22/12:30pm 22.5 19.0 10.3 46 6.7 WSW 19 26 10 14 1014.4 1014.4 0.0
22/12:00pm 22.8 19.4 10.6 46 6.7 WSW 19 28 10 15 1014.2 1014.2 0.0
22/11:30am 21.8 18.9 10.9 50 6.0 WSW 17 24 9 13 1014.1 1014.1 0.0
22/11:00am 20.6 17.7 11.0 54 5.3 WSW 17 24 9 13 1014.2 1014.2 0.0
22/10:30am 20.7 17.9 11.3 55 5.2 WSW 17 22 9 12 1014.2 1014.2 0.0
22/10:00am 19.9 16.5 10.6 55 5.0 SW 19 26 10 14 1014.3 1014.3 0.0
22/09:30am 19.4 16.6 11.4 60 4.4 WSW 17 26 9 14 1014.2 1014.2 0.0
22/09:00am 20.3 18.5 11.0 55 5.1 SW 11 20 6 11 1014.1 1014.1 0.4
22/08:30am 18.7 16.7 11.5 63 3.9 S 13 20 7 11 1014.1 1014.1 0.4
22/08:00am 17.6 16.3 12.5 72 2.8 S 11 17 6 9 1014.0 1014.0 0.4
22/07:30am 17.6 16.7 12.5 72 2.8 SSE 9 13 5 7 1013.8 1013.8 0.4
22/07:00am 17.8 17.3 12.5 71 2.9 SSE 7 11 4 6 1013.5 1013.5 0.4
22/06:30am 17.3 17.0 12.6 74 2.6 SSE 6 11 3 6 1013.2 1013.2 0.4
22/06:00am 17.2 16.0 11.5 69 3.1 SSW 9 15 5 8 1013.0 1013.0 0.4
22/05:30am 17.2 15.1 11.0 67 3.3 SSW 13 19 7 10 1012.7 1012.7 0.4
22/05:00am 17.0 14.7 10.4 65 3.5 SSW 13 20 7 11 1012.4 1012.4 0.4
22/04:30am 16.6 15.5 10.5 67 3.2 SSW 7 13 4 7 1012.1 1012.1 0.4
22/04:00am 16.2 15.2 12.2 77 2.2 SW 9 15 5 8 1012.1 1012.1 0.4
22/03:30am 16.8 16.3 13.7 82 1.8 WSW 9 15 5 8 1012.2 1012.2 0.4
22/03:00am 16.7 16.6 14.0 84 1.5 S 7 13 4 7 1012.1 1012.1 0.4
22/02:30am 16.6 15.1 14.2 86 1.4 S 15 20 8 11 1012.0 1012.0 0.4
22/02:00am 16.9 16.1 11.8 72 2.8 SSW 7 11 4 6 1012.0 1012.0 0.0
22/01:30am 16.8 16.4 12.3 75 2.5 S 6 9 3 5 1012.1 1012.1 0.0
22/01:00am 16.5 16.1 12.5 77 2.2 S 6 11 3 6 1012.4 1012.4 0.0
22/12:30am 16.7 15.8 13.6 82 1.7 SSW 11 17 6 9 1012.6 1012.6 0.0
22/12:00am 17.8 16.2 11.4 66 3.5 SW 11 19 6 10 1012.5 1012.5 0.0
 
Date/Time
WST
Temp
°C
App
Temp
°C
Dew
Point
Rel
Hum
%
Delta-T
°C
Wind Press
QNH
hPa
Press
MSL
hPa
Rain
since 9 am
mm
Dir
 
Spd
km/h
Gust
km/h
Spd
kts
Gust
kts
21/11:30pm 17.7 15.5 10.8 64 3.7 WSW 13 19 7 10 1012.6 1012.6 0.0
21/11:00pm 17.9 14.3 10.0 60 4.2 WSW 19 26 10 14 1012.7 1012.7 0.0
21/10:30pm 18.0 15.2 13.1 73 2.8 SW 20 28 11 15 1012.8 1012.8 0.0
21/10:00pm 18.1 16.0 11.0 63 3.8 WSW 13 20 7 11 1012.9 1012.9 0.0
21/09:30pm 17.6 15.6 12.7 73 2.7 SSW 15 28 8 15 1013.0 1013.0 0.0
21/09:00pm 17.6 15.7 12.9 74 2.6 WSW 15 22 8 12 1013.0 1013.0 0.0
21/08:30pm 18.2 17.6 12.2 68 3.3 SW 7 13 4 7 1012.6 1012.6 0.0
21/08:00pm 18.0 16.3 11.3 65 3.6 WSW 11 20 6 11 1012.5 1012.5 0.0
21/07:30pm 17.9 16.2 11.2 65 3.6 SW 11 19 6 10 1012.4 1012.4 0.0
21/07:00pm 18.0 15.2 11.3 65 3.6 SW 17 22 9 12 1012.2 1012.2 0.0
21/06:30pm 19.0 17.1 13.0 68 3.4 SW 15 26 8 14 1012.1 1012.1 0.0
21/06:00pm 19.8 17.1 10.5 55 5.0 WSW 15 22 8 12 1011.8 1011.8 0.0
21/05:30pm 20.1 17.7 9.9 52 5.5 WSW 13 19 7 10 1011.7 1011.7 0.0
21/05:00pm 20.8 17.2 9.7 49 6.0 WSW 19 28 10 15 1011.8 1011.8 0.0
21/04:30pm 21.3 18.6 10.5 50 5.9 WSW 15 24 8 13 1011.8 1011.8 0.0
21/04:00pm 21.6 17.9 10.1 48 6.2 WSW 20 30 11 16 1012.0 1012.0 0.0
21/03:30pm 21.3 17.8 10.2 49 6.0 W 19 28 10 15 1012.1 1012.1 0.0
21/03:00pm 21.8 18.5 9.7 46 6.5 WSW 17 28 9 15 1012.1 1012.1 0.0
21/02:30pm 21.8 18.3 10.3 48 6.3 WSW 19 32 10 17 1012.1 1012.1 0.0
21/02:00pm 22.3 18.8 10.1 46 6.6 W 19 28 10 15 1011.9 1011.9 0.0
21/01:30pm 22.7 19.8 11.1 48 6.4 WSW 17 28 9 15 1012.0 1012.0 0.0
21/01:00pm 22.4 18.8 10.5 47 6.5 WSW 20 30 11 16 1012.0 1012.0 0.0
21/12:30pm 22.4 19.2 11.8 51 6.0 WSW 20 32 11 17 1012.2 1012.2 0.0
21/12:00pm 21.9 18.5 12.5 55 5.3 SW 22 30 12 16 1012.2 1012.2 0.0
21/11:30am 22.1 18.9 11.8 52 5.8 WSW 20 30 11 16 1012.2 1012.2 0.0
21/11:00am 22.1 18.6 10.9 49 6.2 WSW 20 32 11 17 1012.5 1012.5 0.0
21/10:30am 21.9 18.5 11.3 51 5.9 WSW 20 30 11 16 1012.5 1012.5 0.0
21/10:00am 21.4 18.0 11.4 53 5.5 WSW 20 30 11 16 1012.5 1012.5 0.0
21/09:30am 20.8 17.6 12.0 57 4.9 WSW 20 30 11 16 1012.3 1012.3 0.0
21/09:00am 20.3 17.8 12.3 60 4.5 WSW 17 24 9 13 1012.5 1012.5 0.6
21/08:30am 20.1 17.0 11.6 58 4.7 WSW 19 28 10 15 1012.3 1012.3 0.6
21/08:00am 20.1 17.0 12.1 60 4.5 WSW 20 32 11 17 1012.0 1012.0 0.6
21/07:30am 19.3 16.3 12.1 63 4.0 WSW 19 30 10 16 1011.8 1011.8 0.6
21/07:00am 19.2 15.9 12.9 67 3.6 WSW 22 32 12 17 1011.5 1011.5 0.6
21/06:30am 18.9 16.3 13.1 69 3.3 WSW 19 28 10 15 1011.1 1011.1 0.4
21/06:00am 18.8 16.6 13.4 71 3.1 WSW 17 28 9 15 1010.8 1010.8 0.4
21/05:30am 18.6 16.0 13.2 71 3.0 WSW 19 28 10 15 1010.7 1010.7 0.4
21/05:00am 18.4 16.1 14.1 76 2.5 WSW 19 32 10 17 1010.6 1010.6 0.4
21/04:30am 17.6 15.2 13.9 79 2.1 WSW 19 33 10 18 1010.3 1010.3 0.4
21/04:00am 17.0 15.7 15.9 93 0.6 WSW 17 30 9 16 1010.3 1010.3 0.4
21/03:30am 18.0 15.1 15.1 83 1.7 WSW 24 37 13 20 1010.2 1010.2 0.4
21/03:00am 19.1 16.3 15.4 79 2.2 W 24 32 13 17 1010.0 1010.0 0.4
21/02:30am 18.9 16.5 15.4 80 2.1 W 22 32 12 17 1010.0 1010.0 0.4
21/02:00am 19.0 15.6 14.7 76 2.5 W 26 32 14 17 1010.3 1010.3 0.4
21/01:30am 18.9 15.4 14.6 76 2.5 WNW 26 32 14 17 1010.6 1010.6 0.4
21/01:00am 18.8 16.8 14.9 78 2.3 W 19 24 10 13 1010.9 1010.9 0.4
21/12:30am 19.1 16.5 14.8 76 2.5 W 22 33 12 18 1011.2 1011.2 0.4
21/12:00am 19.0 16.9 14.7 76 2.5 W 19 30 10 16 1011.5 1011.5 0.4
 
Date/Time
WST
Temp
°C
App
Temp
°C
Dew
Point
Rel
Hum
%
Delta-T
°C
Wind Press
QNH
hPa
Press
MSL
hPa
Rain
since 9 am
mm
Dir
 
Spd
km/h
Gust
km/h
Spd
kts
Gust
kts
20/11:30pm 18.9 16.4 14.2 74 2.7 W 20 28 11 15 1011.7 1011.7 0.4
20/11:00pm 19.1 16.6 14.1 73 2.9 W 20 28 11 15 1012.0 1012.0 0.4
20/10:30pm 19.0 17.1 15.1 78 2.3 W 19 24 10 13 1012.2 1012.2 0.4
20/10:00pm 19.2 16.5 14.5 74 2.7 W 22 28 12 15 1012.4 1012.4 0.4
20/09:30pm 19.3 16.7 15.0 76 2.5 W 22 30 12 16 1012.3 1012.3 0.4

Other Formats:

Comma delimited format used in spreadsheet applications
http://www.bom.gov.au/fwo/IDW60801/IDW60801.94605.axf

JavaScript Object Notation format (JSON) in row-major order
http://www.bom.gov.au/fwo/IDW60801/IDW60801.94605.json